sensor_id;sensor_type;location;lat;lon;timestamp;P1;durP1;ratioP1;P2;durP2;ratioP2
68942;SDS011;60852;52.190;4.422;2024-03-17T00:01:05;7.78;;;7.73;;
68942;SDS011;60852;52.190;4.422;2024-03-17T00:03:31;7.47;;;7.44;;
68942;SDS011;60852;52.190;4.422;2024-03-17T00:05:56;7.78;;;7.62;;
68942;SDS011;60852;52.190;4.422;2024-03-17T00:08:23;8.04;;;7.77;;
68942;SDS011;60852;52.190;4.422;2024-03-17T00:10:50;7.47;;;7.39;;
68942;SDS011;60852;52.190;4.422;2024-03-17T00:13:16;7.69;;;7.65;;
68942;SDS011;60852;52.190;4.422;2024-03-17T00:15:42;7.34;;;7.28;;
68942;SDS011;60852;52.190;4.422;2024-03-17T00:18:08;7.71;;;7.66;;
68942;SDS011;60852;52.190;4.422;2024-03-17T00:20:34;7.57;;;7.51;;
68942;SDS011;60852;52.190;4.422;2024-03-17T00:22:59;7.43;;;7.40;;
68942;SDS011;60852;52.190;4.422;2024-03-17T00:25:25;7.34;;;7.32;;
68942;SDS011;60852;52.190;4.422;2024-03-17T00:27:50;6.99;;;6.96;;
68942;SDS011;60852;52.190;4.422;2024-03-17T00:30:20;7.57;;;7.52;;
68942;SDS011;60852;52.190;4.422;2024-03-17T00:32:46;7.90;;;7.77;;
68942;SDS011;60852;52.190;4.422;2024-03-17T00:35:12;7.70;;;7.58;;
68942;SDS011;60852;52.190;4.422;2024-03-17T00:37:39;7.25;;;7.17;;
68942;SDS011;60852;52.190;4.422;2024-03-17T00:40:05;7.33;;;7.32;;
68942;SDS011;60852;52.190;4.422;2024-03-17T00:42:31;7.17;;;7.16;;
68942;SDS011;60852;52.190;4.422;2024-03-17T00:44:57;7.20;;;7.13;;
68942;SDS011;60852;52.190;4.422;2024-03-17T00:47:25;7.11;;;7.07;;
68942;SDS011;60852;52.190;4.422;2024-03-17T00:49:50;6.95;;;6.91;;
68942;SDS011;60852;52.190;4.422;2024-03-17T00:52:16;6.92;;;6.91;;
68942;SDS011;60852;52.190;4.422;2024-03-17T00:54:42;6.72;;;6.72;;
68942;SDS011;60852;52.190;4.422;2024-03-17T00:57:07;6.81;;;6.80;;
68942;SDS011;60852;52.190;4.422;2024-03-17T00:59:33;7.02;;;6.99;;
68942;SDS011;60852;52.190;4.422;2024-03-17T01:01:58;7.11;;;7.05;;
68942;SDS011;60852;52.190;4.422;2024-03-17T01:04:24;7.27;;;7.26;;
68942;SDS011;60852;52.190;4.422;2024-03-17T01:06:49;7.30;;;7.26;;
68942;SDS011;60852;52.190;4.422;2024-03-17T01:09:15;7.59;;;7.57;;
68942;SDS011;60852;52.190;4.422;2024-03-17T01:11:40;7.44;;;7.41;;
68942;SDS011;60852;52.190;4.422;2024-03-17T01:14:06;7.29;;;7.29;;
68942;SDS011;60852;52.190;4.422;2024-03-17T01:16:33;7.57;;;7.56;;
68942;SDS011;60852;52.190;4.422;2024-03-17T01:18:58;7.63;;;7.63;;
68942;SDS011;60852;52.190;4.422;2024-03-17T01:21:24;7.89;;;7.85;;
68942;SDS011;60852;52.190;4.422;2024-03-17T01:23:49;8.11;;;8.00;;
68942;SDS011;60852;52.190;4.422;2024-03-17T01:26:15;8.66;;;8.57;;
68942;SDS011;60852;52.190;4.422;2024-03-17T01:28:40;8.43;;;8.41;;
68942;SDS011;60852;52.190;4.422;2024-03-17T01:31:06;8.67;;;8.67;;
68942;SDS011;60852;52.190;4.422;2024-03-17T01:33:32;8.26;;;8.25;;
68942;SDS011;60852;52.190;4.422;2024-03-17T01:35:58;8.64;;;8.63;;
68942;SDS011;60852;52.190;4.422;2024-03-17T01:38:23;9.19;;;9.19;;
68942;SDS011;60852;52.190;4.422;2024-03-17T01:40:49;9.45;;;9.45;;
68942;SDS011;60852;52.190;4.422;2024-03-17T01:43:14;9.77;;;9.77;;
68942;SDS011;60852;52.190;4.422;2024-03-17T01:45:40;10.11;;;10.09;;
68942;SDS011;60852;52.190;4.422;2024-03-17T01:48:12;10.09;;;9.97;;
68942;SDS011;60852;52.190;4.422;2024-03-17T01:50:44;10.11;;;10.11;;
68942;SDS011;60852;52.190;4.422;2024-03-17T01:53:12;10.48;;;10.44;;
68942;SDS011;60852;52.190;4.422;2024-03-17T01:55:39;10.39;;;10.37;;
68942;SDS011;60852;52.190;4.422;2024-03-17T01:58:09;10.98;;;10.93;;
68942;SDS011;60852;52.190;4.422;2024-03-17T02:00:38;10.90;;;10.89;;
68942;SDS011;60852;52.190;4.422;2024-03-17T02:03:05;10.79;;;10.73;;
68942;SDS011;60852;52.190;4.422;2024-03-17T02:05:31;11.03;;;10.98;;
68942;SDS011;60852;52.190;4.422;2024-03-17T02:07:59;11.51;;;11.44;;
68942;SDS011;60852;52.190;4.422;2024-03-17T02:10:24;11.30;;;11.30;;
68942;SDS011;60852;52.190;4.422;2024-03-17T02:12:50;11.08;;;11.07;;
68942;SDS011;60852;52.190;4.422;2024-03-17T02:15:16;11.72;;;11.67;;
68942;SDS011;60852;52.190;4.422;2024-03-17T02:17:42;11.86;;;11.86;;
68942;SDS011;60852;52.190;4.422;2024-03-17T02:20:08;11.51;;;11.50;;
68942;SDS011;60852;52.190;4.422;2024-03-17T02:22:36;11.58;;;11.58;;
68942;SDS011;60852;52.190;4.422;2024-03-17T02:25:02;11.36;;;11.35;;
68942;SDS011;60852;52.190;4.422;2024-03-17T02:27:28;11.60;;;11.57;;
68942;SDS011;60852;52.190;4.422;2024-03-17T02:29:54;11.82;;;11.82;;
68942;SDS011;60852;52.190;4.422;2024-03-17T02:32:20;11.65;;;11.65;;
68942;SDS011;60852;52.190;4.422;2024-03-17T02:34:47;12.20;;;12.17;;
68942;SDS011;60852;52.190;4.422;2024-03-17T02:37:13;11.79;;;11.78;;
68942;SDS011;60852;52.190;4.422;2024-03-17T02:39:39;11.88;;;11.82;;
68942;SDS011;60852;52.190;4.422;2024-03-17T02:42:05;12.15;;;12.15;;
68942;SDS011;60852;52.190;4.422;2024-03-17T02:44:33;12.20;;;12.15;;
68942;SDS011;60852;52.190;4.422;2024-03-17T02:47:00;11.88;;;11.88;;
68942;SDS011;60852;52.190;4.422;2024-03-17T02:49:27;11.83;;;11.82;;
68942;SDS011;60852;52.190;4.422;2024-03-17T02:52:00;12.51;;;12.51;;
68942;SDS011;60852;52.190;4.422;2024-03-17T02:54:26;12.57;;;12.52;;
68942;SDS011;60852;52.190;4.422;2024-03-17T02:56:51;12.46;;;12.44;;
68942;SDS011;60852;52.190;4.422;2024-03-17T02:59:17;12.05;;;11.97;;
68942;SDS011;60852;52.190;4.422;2024-03-17T03:01:43;12.27;;;12.12;;
68942;SDS011;60852;52.190;4.422;2024-03-17T03:04:08;12.53;;;12.42;;
68942;SDS011;60852;52.190;4.422;2024-03-17T03:06:34;12.52;;;12.44;;
68942;SDS011;60852;52.190;4.422;2024-03-17T03:08:59;12.11;;;12.08;;
68942;SDS011;60852;52.190;4.422;2024-03-17T03:11:25;12.41;;;12.39;;
68942;SDS011;60852;52.190;4.422;2024-03-17T03:13:51;12.65;;;12.57;;
68942;SDS011;60852;52.190;4.422;2024-03-17T03:16:16;12.50;;;12.50;;
68942;SDS011;60852;52.190;4.422;2024-03-17T03:18:44;13.24;;;13.14;;
68942;SDS011;60852;52.190;4.422;2024-03-17T03:21:10;12.42;;;12.37;;
68942;SDS011;60852;52.190;4.422;2024-03-17T03:23:37;12.23;;;12.12;;
68942;SDS011;60852;52.190;4.422;2024-03-17T03:26:03;12.26;;;12.22;;
68942;SDS011;60852;52.190;4.422;2024-03-17T03:28:32;12.47;;;12.35;;
68942;SDS011;60852;52.190;4.422;2024-03-17T03:30:58;12.17;;;12.16;;
68942;SDS011;60852;52.190;4.422;2024-03-17T03:33:24;12.92;;;12.82;;
68942;SDS011;60852;52.190;4.422;2024-03-17T03:35:50;12.56;;;12.53;;
68942;SDS011;60852;52.190;4.422;2024-03-17T03:38:16;12.62;;;12.61;;
68942;SDS011;60852;52.190;4.422;2024-03-17T03:40:43;12.24;;;12.19;;
68942;SDS011;60852;52.190;4.422;2024-03-17T03:43:09;11.84;;;11.81;;
68942;SDS011;60852;52.190;4.422;2024-03-17T03:45:35;12.14;;;12.14;;
68942;SDS011;60852;52.190;4.422;2024-03-17T03:48:02;12.31;;;12.31;;
68942;SDS011;60852;52.190;4.422;2024-03-17T03:50:28;12.28;;;12.24;;
68942;SDS011;60852;52.190;4.422;2024-03-17T03:52:54;12.30;;;12.30;;
68942;SDS011;60852;52.190;4.422;2024-03-17T03:55:20;12.61;;;12.51;;
68942;SDS011;60852;52.190;4.422;2024-03-17T03:57:46;12.36;;;12.29;;
68942;SDS011;60852;52.190;4.422;2024-03-17T04:00:15;12.81;;;12.72;;
68942;SDS011;60852;52.190;4.422;2024-03-17T04:02:41;12.76;;;12.76;;
68942;SDS011;60852;52.190;4.422;2024-03-17T04:05:07;12.68;;;12.68;;
68942;SDS011;60852;52.190;4.422;2024-03-17T04:07:34;13.09;;;13.07;;
68942;SDS011;60852;52.190;4.422;2024-03-17T04:10:01;13.14;;;13.08;;
68942;SDS011;60852;52.190;4.422;2024-03-17T04:12:27;13.12;;;13.08;;
68942;SDS011;60852;52.190;4.422;2024-03-17T04:14:53;12.36;;;12.36;;
68942;SDS011;60852;52.190;4.422;2024-03-17T04:17:20;12.41;;;12.40;;
68942;SDS011;60852;52.190;4.422;2024-03-17T04:19:49;12.71;;;12.71;;
68942;SDS011;60852;52.190;4.422;2024-03-17T04:22:15;13.21;;;13.21;;
68942;SDS011;60852;52.190;4.422;2024-03-17T04:24:45;12.82;;;12.81;;
68942;SDS011;60852;52.190;4.422;2024-03-17T04:27:13;13.02;;;12.93;;
68942;SDS011;60852;52.190;4.422;2024-03-17T04:29:39;12.93;;;12.93;;
68942;SDS011;60852;52.190;4.422;2024-03-17T04:32:05;13.70;;;13.48;;
68942;SDS011;60852;52.190;4.422;2024-03-17T04:34:32;13.35;;;13.35;;
68942;SDS011;60852;52.190;4.422;2024-03-17T04:36:58;13.38;;;13.38;;
68942;SDS011;60852;52.190;4.422;2024-03-17T04:39:24;13.09;;;13.06;;
68942;SDS011;60852;52.190;4.422;2024-03-17T04:41:50;12.88;;;12.82;;
68942;SDS011;60852;52.190;4.422;2024-03-17T04:44:16;13.12;;;12.99;;
68942;SDS011;60852;52.190;4.422;2024-03-17T04:46:42;13.02;;;13.02;;
68942;SDS011;60852;52.190;4.422;2024-03-17T04:49:07;13.10;;;13.08;;
68942;SDS011;60852;52.190;4.422;2024-03-17T04:51:33;13.09;;;13.09;;
68942;SDS011;60852;52.190;4.422;2024-03-17T04:54:00;13.13;;;13.13;;
68942;SDS011;60852;52.190;4.422;2024-03-17T04:56:28;13.15;;;13.01;;
68942;SDS011;60852;52.190;4.422;2024-03-17T04:58:54;13.15;;;13.14;;
68942;SDS011;60852;52.190;4.422;2024-03-17T05:01:19;13.16;;;13.15;;
68942;SDS011;60852;52.190;4.422;2024-03-17T05:03:45;13.50;;;13.48;;
68942;SDS011;60852;52.190;4.422;2024-03-17T05:06:10;13.89;;;13.69;;
68942;SDS011;60852;52.190;4.422;2024-03-17T05:08:36;13.46;;;13.42;;
68942;SDS011;60852;52.190;4.422;2024-03-17T05:11:02;13.63;;;13.52;;
68942;SDS011;60852;52.190;4.422;2024-03-17T05:13:30;14.17;;;14.17;;
68942;SDS011;60852;52.190;4.422;2024-03-17T05:15:57;14.13;;;14.07;;
68942;SDS011;60852;52.190;4.422;2024-03-17T05:18:23;14.03;;;14.01;;
68942;SDS011;60852;52.190;4.422;2024-03-17T05:21:00;13.76;;;13.76;;
68942;SDS011;60852;52.190;4.422;2024-03-17T05:23:33;14.19;;;14.19;;
68942;SDS011;60852;52.190;4.422;2024-03-17T05:26:01;14.75;;;14.60;;
68942;SDS011;60852;52.190;4.422;2024-03-17T05:28:28;14.39;;;14.32;;
68942;SDS011;60852;52.190;4.422;2024-03-17T05:30:54;15.03;;;14.71;;
68942;SDS011;60852;52.190;4.422;2024-03-17T05:33:22;14.68;;;14.54;;
68942;SDS011;60852;52.190;4.422;2024-03-17T05:36:07;14.54;;;14.54;;
68942;SDS011;60852;52.190;4.422;2024-03-17T05:38:33;14.80;;;14.70;;
68942;SDS011;60852;52.190;4.422;2024-03-17T05:43:37;14.90;;;14.90;;
68942;SDS011;60852;52.190;4.422;2024-03-17T05:46:04;14.95;;;14.73;;
68942;SDS011;60852;52.190;4.422;2024-03-17T05:48:31;15.11;;;15.00;;
68942;SDS011;60852;52.190;4.422;2024-03-17T05:51:00;14.78;;;14.67;;
68942;SDS011;60852;52.190;4.422;2024-03-17T05:53:27;14.55;;;14.55;;
68942;SDS011;60852;52.190;4.422;2024-03-17T05:55:53;14.57;;;14.53;;
68942;SDS011;60852;52.190;4.422;2024-03-17T05:58:18;14.38;;;14.37;;
68942;SDS011;60852;52.190;4.422;2024-03-17T06:00:44;14.98;;;14.98;;
68942;SDS011;60852;52.190;4.422;2024-03-17T06:03:09;14.56;;;14.56;;
68942;SDS011;60852;52.190;4.422;2024-03-17T06:05:36;15.20;;;15.00;;
68942;SDS011;60852;52.190;4.422;2024-03-17T06:08:04;14.91;;;14.68;;
68942;SDS011;60852;52.190;4.422;2024-03-17T06:10:33;14.63;;;14.62;;
68942;SDS011;60852;52.190;4.422;2024-03-17T06:12:59;14.42;;;14.42;;
68942;SDS011;60852;52.190;4.422;2024-03-17T06:15:25;15.33;;;15.16;;
68942;SDS011;60852;52.190;4.422;2024-03-17T06:17:52;14.84;;;14.73;;
68942;SDS011;60852;52.190;4.422;2024-03-17T06:20:19;14.61;;;14.51;;
68942;SDS011;60852;52.190;4.422;2024-03-17T06:22:45;14.82;;;14.75;;
68942;SDS011;60852;52.190;4.422;2024-03-17T06:25:11;14.59;;;14.40;;
68942;SDS011;60852;52.190;4.422;2024-03-17T06:27:37;14.56;;;14.56;;
68942;SDS011;60852;52.190;4.422;2024-03-17T06:30:03;14.61;;;14.60;;
68942;SDS011;60852;52.190;4.422;2024-03-17T06:32:35;15.26;;;15.14;;
68942;SDS011;60852;52.190;4.422;2024-03-17T06:35:03;14.32;;;14.27;;
68942;SDS011;60852;52.190;4.422;2024-03-17T06:37:29;15.14;;;15.06;;
68942;SDS011;60852;52.190;4.422;2024-03-17T06:39:55;15.21;;;15.08;;
68942;SDS011;60852;52.190;4.422;2024-03-17T06:42:20;15.30;;;15.21;;
68942;SDS011;60852;52.190;4.422;2024-03-17T06:44:46;14.74;;;14.71;;
68942;SDS011;60852;52.190;4.422;2024-03-17T06:47:12;15.09;;;15.09;;
68942;SDS011;60852;52.190;4.422;2024-03-17T06:49:37;15.25;;;15.19;;
68942;SDS011;60852;52.190;4.422;2024-03-17T06:52:03;14.99;;;14.97;;
68942;SDS011;60852;52.190;4.422;2024-03-17T06:54:29;14.81;;;14.81;;
68942;SDS011;60852;52.190;4.422;2024-03-17T06:56:54;14.89;;;14.89;;
68942;SDS011;60852;52.190;4.422;2024-03-17T06:59:20;14.50;;;14.49;;
68942;SDS011;60852;52.190;4.422;2024-03-17T07:01:48;15.11;;;14.77;;
68942;SDS011;60852;52.190;4.422;2024-03-17T07:04:14;14.39;;;14.32;;
68942;SDS011;60852;52.190;4.422;2024-03-17T07:06:41;14.43;;;14.39;;
68942;SDS011;60852;52.190;4.422;2024-03-17T07:09:07;14.14;;;14.13;;
68942;SDS011;60852;52.190;4.422;2024-03-17T07:11:33;14.63;;;14.63;;
68942;SDS011;60852;52.190;4.422;2024-03-17T07:14:00;15.02;;;15.02;;
68942;SDS011;60852;52.190;4.422;2024-03-17T07:16:26;14.60;;;14.54;;
68942;SDS011;60852;52.190;4.422;2024-03-17T07:18:51;14.39;;;14.36;;
68942;SDS011;60852;52.190;4.422;2024-03-17T07:21:21;14.50;;;14.50;;
68942;SDS011;60852;52.190;4.422;2024-03-17T07:23:47;14.64;;;14.60;;
68942;SDS011;60852;52.190;4.422;2024-03-17T07:26:12;14.90;;;14.88;;
68942;SDS011;60852;52.190;4.422;2024-03-17T07:28:39;14.88;;;14.82;;
68942;SDS011;60852;52.190;4.422;2024-03-17T07:31:09;14.87;;;14.78;;
68942;SDS011;60852;52.190;4.422;2024-03-17T07:33:37;15.13;;;15.13;;
68942;SDS011;60852;52.190;4.422;2024-03-17T07:36:03;14.65;;;14.65;;
68942;SDS011;60852;52.190;4.422;2024-03-17T07:38:30;15.18;;;15.03;;
68942;SDS011;60852;52.190;4.422;2024-03-17T07:41:03;15.23;;;15.10;;
68942;SDS011;60852;52.190;4.422;2024-03-17T07:43:30;15.33;;;15.32;;
68942;SDS011;60852;52.190;4.422;2024-03-17T07:46:01;15.52;;;15.52;;
68942;SDS011;60852;52.190;4.422;2024-03-17T07:48:32;15.24;;;15.24;;
68942;SDS011;60852;52.190;4.422;2024-03-17T07:51:00;15.41;;;15.41;;
68942;SDS011;60852;52.190;4.422;2024-03-17T07:53:37;15.29;;;15.19;;
68942;SDS011;60852;52.190;4.422;2024-03-17T07:56:05;14.82;;;14.81;;
68942;SDS011;60852;52.190;4.422;2024-03-17T07:58:35;15.25;;;15.25;;
68942;SDS011;60852;52.190;4.422;2024-03-17T08:01:06;15.33;;;15.25;;
68942;SDS011;60852;52.190;4.422;2024-03-17T08:03:35;15.94;;;15.82;;
68942;SDS011;60852;52.190;4.422;2024-03-17T08:06:03;15.39;;;15.26;;
68942;SDS011;60852;52.190;4.422;2024-03-17T08:08:30;15.07;;;15.06;;
68942;SDS011;60852;52.190;4.422;2024-03-17T08:10:56;15.12;;;15.12;;
68942;SDS011;60852;52.190;4.422;2024-03-17T08:13:22;15.74;;;15.74;;
68942;SDS011;60852;52.190;4.422;2024-03-17T08:15:58;15.14;;;15.13;;
68942;SDS011;60852;52.190;4.422;2024-03-17T08:18:25;15.20;;;14.86;;
68942;SDS011;60852;52.190;4.422;2024-03-17T08:20:54;15.86;;;15.80;;
68942;SDS011;60852;52.190;4.422;2024-03-17T08:23:20;15.81;;;15.80;;
68942;SDS011;60852;52.190;4.422;2024-03-17T08:28:22;16.11;;;16.11;;
68942;SDS011;60852;52.190;4.422;2024-03-17T08:30:59;15.71;;;15.55;;
68942;SDS011;60852;52.190;4.422;2024-03-17T08:33:26;15.81;;;15.39;;
68942;SDS011;60852;52.190;4.422;2024-03-17T08:38:18;16.52;;;16.52;;
68942;SDS011;60852;52.190;4.422;2024-03-17T08:40:46;16.62;;;16.57;;
68942;SDS011;60852;52.190;4.422;2024-03-17T08:43:12;15.88;;;15.83;;
68942;SDS011;60852;52.190;4.422;2024-03-17T08:45:37;16.03;;;15.97;;
68942;SDS011;60852;52.190;4.422;2024-03-17T08:48:03;17.18;;;17.09;;
68942;SDS011;60852;52.190;4.422;2024-03-17T08:50:28;16.84;;;16.77;;
68942;SDS011;60852;52.190;4.422;2024-03-17T08:52:54;17.69;;;17.51;;
68942;SDS011;60852;52.190;4.422;2024-03-17T08:55:19;17.08;;;17.01;;
68942;SDS011;60852;52.190;4.422;2024-03-17T08:57:45;17.29;;;17.23;;
68942;SDS011;60852;52.190;4.422;2024-03-17T09:00:10;16.49;;;16.49;;
68942;SDS011;60852;52.190;4.422;2024-03-17T09:02:36;16.56;;;16.43;;
68942;SDS011;60852;52.190;4.422;2024-03-17T09:05:02;16.51;;;16.30;;
68942;SDS011;60852;52.190;4.422;2024-03-17T09:07:29;15.79;;;15.79;;
68942;SDS011;60852;52.190;4.422;2024-03-17T09:09:54;15.80;;;15.80;;
68942;SDS011;60852;52.190;4.422;2024-03-17T09:12:20;15.43;;;15.43;;
68942;SDS011;60852;52.190;4.422;2024-03-17T09:14:48;15.42;;;15.39;;
68942;SDS011;60852;52.190;4.422;2024-03-17T09:17:14;15.34;;;15.34;;
68942;SDS011;60852;52.190;4.422;2024-03-17T09:19:39;15.54;;;15.50;;
68942;SDS011;60852;52.190;4.422;2024-03-17T09:22:05;15.81;;;15.41;;
68942;SDS011;60852;52.190;4.422;2024-03-17T09:24:30;15.13;;;15.03;;
68942;SDS011;60852;52.190;4.422;2024-03-17T09:26:56;14.82;;;14.82;;
68942;SDS011;60852;52.190;4.422;2024-03-17T09:29:21;14.61;;;14.61;;
68942;SDS011;60852;52.190;4.422;2024-03-17T09:31:47;17.21;;;17.13;;
68942;SDS011;60852;52.190;4.422;2024-03-17T09:34:12;18.10;;;17.90;;
68942;SDS011;60852;52.190;4.422;2024-03-17T09:36:38;14.89;;;14.81;;
68942;SDS011;60852;52.190;4.422;2024-03-17T09:39:04;14.93;;;14.85;;
68942;SDS011;60852;52.190;4.422;2024-03-17T09:41:30;14.84;;;14.84;;
68942;SDS011;60852;52.190;4.422;2024-03-17T09:43:56;14.56;;;14.56;;
68942;SDS011;60852;52.190;4.422;2024-03-17T09:46:24;15.25;;;15.23;;
68942;SDS011;60852;52.190;4.422;2024-03-17T09:48:54;14.91;;;14.91;;
68942;SDS011;60852;52.190;4.422;2024-03-17T09:51:21;14.09;;;14.09;;
68942;SDS011;60852;52.190;4.422;2024-03-17T09:53:48;14.74;;;14.74;;
68942;SDS011;60852;52.190;4.422;2024-03-17T09:56:15;14.25;;;14.25;;
68942;SDS011;60852;52.190;4.422;2024-03-17T09:58:51;14.80;;;14.77;;
68942;SDS011;60852;52.190;4.422;2024-03-17T10:01:17;14.00;;;13.98;;
68942;SDS011;60852;52.190;4.422;2024-03-17T10:03:47;14.19;;;14.19;;
68942;SDS011;60852;52.190;4.422;2024-03-17T10:06:18;14.81;;;14.80;;
68942;SDS011;60852;52.190;4.422;2024-03-17T10:08:48;14.44;;;14.36;;
68942;SDS011;60852;52.190;4.422;2024-03-17T10:11:16;14.25;;;14.22;;
68942;SDS011;60852;52.190;4.422;2024-03-17T10:13:44;14.01;;;13.97;;
68942;SDS011;60852;52.190;4.422;2024-03-17T10:16:21;13.71;;;13.67;;
68942;SDS011;60852;52.190;4.422;2024-03-17T10:18:49;14.06;;;14.06;;
68942;SDS011;60852;52.190;4.422;2024-03-17T10:21:36;13.91;;;13.91;;
68942;SDS011;60852;52.190;4.422;2024-03-17T10:24:05;15.25;;;15.25;;
68942;SDS011;60852;52.190;4.422;2024-03-17T10:26:33;15.40;;;15.38;;
68942;SDS011;60852;52.190;4.422;2024-03-17T10:29:02;15.41;;;15.39;;
68942;SDS011;60852;52.190;4.422;2024-03-17T10:31:29;14.43;;;14.43;;
68942;SDS011;60852;52.190;4.422;2024-03-17T10:34:01;14.83;;;14.83;;
68942;SDS011;60852;52.190;4.422;2024-03-17T10:36:27;15.30;;;15.30;;
68942;SDS011;60852;52.190;4.422;2024-03-17T10:38:53;15.43;;;15.31;;
68942;SDS011;60852;52.190;4.422;2024-03-17T10:41:20;15.29;;;15.29;;
68942;SDS011;60852;52.190;4.422;2024-03-17T10:43:47;16.46;;;16.46;;
68942;SDS011;60852;52.190;4.422;2024-03-17T10:46:12;15.97;;;15.97;;
68942;SDS011;60852;52.190;4.422;2024-03-17T10:48:40;14.56;;;14.56;;
68942;SDS011;60852;52.190;4.422;2024-03-17T10:51:09;13.95;;;13.95;;
68942;SDS011;60852;52.190;4.422;2024-03-17T10:53:43;13.60;;;13.58;;
68942;SDS011;60852;52.190;4.422;2024-03-17T10:56:12;13.97;;;13.93;;
68942;SDS011;60852;52.190;4.422;2024-03-17T10:58:43;14.08;;;14.08;;
68942;SDS011;60852;52.190;4.422;2024-03-17T11:01:14;13.57;;;13.57;;
68942;SDS011;60852;52.190;4.422;2024-03-17T11:03:40;13.61;;;13.61;;
68942;SDS011;60852;52.190;4.422;2024-03-17T11:06:08;14.75;;;14.61;;
68942;SDS011;60852;52.190;4.422;2024-03-17T11:08:35;13.68;;;13.67;;
68942;SDS011;60852;52.190;4.422;2024-03-17T11:11:03;13.99;;;13.98;;
68942;SDS011;60852;52.190;4.422;2024-03-17T11:13:29;14.16;;;14.15;;
68942;SDS011;60852;52.190;4.422;2024-03-17T11:15:56;14.20;;;14.19;;
68942;SDS011;60852;52.190;4.422;2024-03-17T11:18:32;14.45;;;14.36;;
68942;SDS011;60852;52.190;4.422;2024-03-17T11:21:03;14.32;;;14.30;;
68942;SDS011;60852;52.190;4.422;2024-03-17T11:23:54;14.92;;;14.66;;
68942;SDS011;60852;52.190;4.422;2024-03-17T11:26:26;17.24;;;17.04;;
68942;SDS011;60852;52.190;4.422;2024-03-17T11:28:53;14.81;;;14.61;;
68942;SDS011;60852;52.190;4.422;2024-03-17T11:31:42;14.41;;;14.40;;
68942;SDS011;60852;52.190;4.422;2024-03-17T11:34:25;13.92;;;13.79;;
68942;SDS011;60852;52.190;4.422;2024-03-17T11:36:55;13.94;;;13.91;;
68942;SDS011;60852;52.190;4.422;2024-03-17T11:39:55;15.00;;;15.00;;
68942;SDS011;60852;52.190;4.422;2024-03-17T11:42:21;14.74;;;14.68;;
68942;SDS011;60852;52.190;4.422;2024-03-17T11:45:04;15.18;;;15.08;;
68942;SDS011;60852;52.190;4.422;2024-03-17T11:47:44;14.92;;;14.92;;
68942;SDS011;60852;52.190;4.422;2024-03-17T11:50:10;14.78;;;14.78;;
68942;SDS011;60852;52.190;4.422;2024-03-17T11:52:38;14.47;;;14.47;;
68942;SDS011;60852;52.190;4.422;2024-03-17T11:55:14;14.85;;;14.85;;
68942;SDS011;60852;52.190;4.422;2024-03-17T11:57:41;15.80;;;15.80;;
68942;SDS011;60852;52.190;4.422;2024-03-17T12:00:15;16.58;;;16.58;;
68942;SDS011;60852;52.190;4.422;2024-03-17T12:02:47;16.97;;;16.97;;
68942;SDS011;60852;52.190;4.422;2024-03-17T12:05:14;15.76;;;15.75;;
68942;SDS011;60852;52.190;4.422;2024-03-17T12:07:42;14.75;;;14.75;;
68942;SDS011;60852;52.190;4.422;2024-03-17T12:10:10;16.17;;;16.13;;
68942;SDS011;60852;52.190;4.422;2024-03-17T12:12:38;14.86;;;14.86;;
68942;SDS011;60852;52.190;4.422;2024-03-17T12:15:13;14.37;;;14.35;;
68942;SDS011;60852;52.190;4.422;2024-03-17T12:17:44;13.83;;;13.70;;
68942;SDS011;60852;52.190;4.422;2024-03-17T12:20:16;13.80;;;13.80;;
68942;SDS011;60852;52.190;4.422;2024-03-17T12:22:44;14.77;;;14.76;;
68942;SDS011;60852;52.190;4.422;2024-03-17T12:25:20;13.83;;;13.83;;
68942;SDS011;60852;52.190;4.422;2024-03-17T12:27:48;13.63;;;13.60;;
68942;SDS011;60852;52.190;4.422;2024-03-17T12:30:14;13.69;;;13.63;;
68942;SDS011;60852;52.190;4.422;2024-03-17T12:32:42;14.58;;;14.58;;
68942;SDS011;60852;52.190;4.422;2024-03-17T12:35:15;14.17;;;14.06;;
68942;SDS011;60852;52.190;4.422;2024-03-17T12:37:43;13.33;;;13.33;;
68942;SDS011;60852;52.190;4.422;2024-03-17T12:40:20;13.05;;;13.03;;
68942;SDS011;60852;52.190;4.422;2024-03-17T12:42:48;12.51;;;12.51;;
68942;SDS011;60852;52.190;4.422;2024-03-17T12:45:18;11.94;;;11.93;;
68942;SDS011;60852;52.190;4.422;2024-03-17T12:47:47;11.50;;;11.47;;
68942;SDS011;60852;52.190;4.422;2024-03-17T12:50:13;11.57;;;11.57;;
68942;SDS011;60852;52.190;4.422;2024-03-17T12:52:39;11.71;;;11.71;;
68942;SDS011;60852;52.190;4.422;2024-03-17T12:55:06;12.06;;;12.02;;
68942;SDS011;60852;52.190;4.422;2024-03-17T12:57:52;11.84;;;11.83;;
68942;SDS011;60852;52.190;4.422;2024-03-17T13:01:01;12.31;;;12.30;;
68942;SDS011;60852;52.190;4.422;2024-03-17T13:03:32;12.53;;;12.51;;
68942;SDS011;60852;52.190;4.422;2024-03-17T13:05:59;12.84;;;12.84;;
68942;SDS011;60852;52.190;4.422;2024-03-17T13:08:27;11.87;;;11.87;;
68942;SDS011;60852;52.190;4.422;2024-03-17T13:10:53;12.12;;;12.10;;
68942;SDS011;60852;52.190;4.422;2024-03-17T13:13:19;11.50;;;11.48;;
68942;SDS011;60852;52.190;4.422;2024-03-17T13:15:44;11.36;;;11.29;;
68942;SDS011;60852;52.190;4.422;2024-03-17T13:18:12;11.57;;;11.44;;
68942;SDS011;60852;52.190;4.422;2024-03-17T13:20:45;10.90;;;10.89;;
68942;SDS011;60852;52.190;4.422;2024-03-17T13:23:14;10.59;;;10.47;;
68942;SDS011;60852;52.190;4.422;2024-03-17T13:25:40;10.52;;;10.43;;
68942;SDS011;60852;52.190;4.422;2024-03-17T13:28:08;11.03;;;11.03;;
68942;SDS011;60852;52.190;4.422;2024-03-17T13:30:34;13.25;;;13.25;;
68942;SDS011;60852;52.190;4.422;2024-03-17T13:33:01;10.59;;;10.59;;
68942;SDS011;60852;52.190;4.422;2024-03-17T13:35:33;10.06;;;10.05;;
68942;SDS011;60852;52.190;4.422;2024-03-17T13:38:04;10.79;;;10.79;;
68942;SDS011;60852;52.190;4.422;2024-03-17T13:40:32;9.73;;;9.73;;
68942;SDS011;60852;52.190;4.422;2024-03-17T13:42:59;9.85;;;9.85;;
68942;SDS011;60852;52.190;4.422;2024-03-17T13:45:25;9.97;;;9.97;;
68942;SDS011;60852;52.190;4.422;2024-03-17T13:47:59;11.97;;;11.97;;
68942;SDS011;60852;52.190;4.422;2024-03-17T13:50:26;11.59;;;11.56;;
68942;SDS011;60852;52.190;4.422;2024-03-17T13:52:52;10.43;;;10.42;;
68942;SDS011;60852;52.190;4.422;2024-03-17T13:55:21;10.36;;;10.36;;
68942;SDS011;60852;52.190;4.422;2024-03-17T13:57:51;10.78;;;10.78;;
68942;SDS011;60852;52.190;4.422;2024-03-17T14:00:25;9.72;;;9.72;;
68942;SDS011;60852;52.190;4.422;2024-03-17T14:02:52;9.42;;;9.35;;
68942;SDS011;60852;52.190;4.422;2024-03-17T14:05:22;9.65;;;9.61;;
68942;SDS011;60852;52.190;4.422;2024-03-17T14:07:49;9.37;;;9.37;;
68942;SDS011;60852;52.190;4.422;2024-03-17T14:10:17;9.77;;;9.77;;
68942;SDS011;60852;52.190;4.422;2024-03-17T14:12:44;9.83;;;9.83;;
68942;SDS011;60852;52.190;4.422;2024-03-17T14:15:11;9.29;;;9.29;;
68942;SDS011;60852;52.190;4.422;2024-03-17T14:17:39;9.93;;;9.93;;
68942;SDS011;60852;52.190;4.422;2024-03-17T14:20:06;10.24;;;10.24;;
68942;SDS011;60852;52.190;4.422;2024-03-17T14:22:36;10.76;;;10.76;;
68942;SDS011;60852;52.190;4.422;2024-03-17T14:25:03;9.52;;;9.52;;
68942;SDS011;60852;52.190;4.422;2024-03-17T14:27:32;9.44;;;9.44;;
68942;SDS011;60852;52.190;4.422;2024-03-17T14:29:58;8.64;;;8.64;;
68942;SDS011;60852;52.190;4.422;2024-03-17T14:32:24;9.07;;;9.07;;
68942;SDS011;60852;52.190;4.422;2024-03-17T14:34:49;8.92;;;8.92;;
68942;SDS011;60852;52.190;4.422;2024-03-17T14:37:15;8.57;;;8.57;;